Time;durP1;ratioP1;P1;durP2;ratioP2;P2;SDS_P1;SDS_P2;PMS_P1;PMS_P2;Temp;Humidity;BMP_temperature;BMP_pressure;BME280_temperature;BME280_humidity;BME280_pressure;Samples;Min_cycle;Max_cycle;Signal;HPM_P1;HPM_P2
2024/03/18 00:01:18;;;;;;;1.88;1.77;;;;;;;3.78;72.76;99871.28;5055738;28;20052;-65
2024/03/18 00:03:46;;;;;;;1.15;1.13;;;;;;;3.84;72.29;99876.50;5055732;28;20037;-65
2024/03/18 00:06:13;;;;;;;15.10;2.05;;;;;;;3.80;72.70;99884.78;5072003;28;20036;-65
2024/03/18 00:08:41;;;;;;;0.57;0.57;;;;;;;3.82;72.95;99881.50;5072391;28;20548;-66
2024/03/18 00:11:10;;;;;;;2.65;1.95;;;;;;;3.76;73.08;99872.91;5072378;28;20049;-65
2024/03/18 00:13:39;;;;;;;2.97;1.67;;;;;;;3.73;72.82;99883.75;5072190;28;20048;-66
2024/03/18 00:16:07;;;;;;;1.17;0.73;;;;;;;3.79;72.84;99878.03;5071948;28;20041;-66
2024/03/18 00:18:36;;;;;;;0.77;0.77;;;;;;;3.75;73.05;99874.56;5071998;28;20507;-65
2024/03/18 00:21:04;;;;;;;0.50;0.50;;;;;;;3.64;73.23;99865.81;5072299;28;20040;-65
2024/03/18 00:23:32;;;;;;;1.10;1.00;;;;;;;3.56;73.38;99853.78;5072261;28;20036;-65
2024/03/18 00:26:00;;;;;;;0.70;0.70;;;;;;;3.69;73.17;99874.41;5072223;28;20036;-65
2024/03/18 00:28:31;;;;;;;1.08;1.00;;;;;;;3.62;73.10;99864.94;5055509;28;20094;-66
2024/03/18 00:30:59;;;;;;;2.72;1.75;;;;;;;3.53;73.65;99864.63;5072545;28;20045;-66
2024/03/18 00:33:27;;;;;;;0.75;0.75;;;;;;;3.44;73.57;99859.31;5074316;28;20040;-65
2024/03/18 00:35:56;;;;;;;1.65;0.85;;;;;;;3.41;73.95;99848.28;5075743;28;20033;-65
2024/03/18 00:38:24;;;;;;;0.75;0.75;;;;;;;3.42;73.29;99858.41;5059002;28;20041;-66
2024/03/18 00:41:44;;;;;;;0.82;0.82;;;;;;;3.31;74.08;99860.59;5075870;28;20094;-66
2024/03/18 00:43:41;;;;;;;1.20;1.10;;;;;;;3.18;73.49;99833.31;5059051;28;20041;-66
2024/03/18 00:46:08;;;;;;;0.20;0.20;;;;;;;3.28;74.53;99854.63;5075781;28;20040;-66
2024/03/18 00:48:36;;;;;;;0.50;0.50;;;;;;;3.27;74.03;99856.28;5075401;28;20060;-66
2024/03/18 00:51:04;;;;;;;3.40;1.13;;;;;;;3.18;74.57;99855.16;5059020;28;20043;-66
2024/03/18 00:53:33;;;;;;;1.13;1.02;;;;;;;3.10;74.40;99851.50;5058996;28;20033;-65
2024/03/18 00:56:06;;;;;;;0.77;0.77;;;;;;;3.17;74.21;99850.91;5075150;28;20063;-65
2024/03/18 00:58:34;;;;;;;0.40;0.40;;;;;;;3.15;74.65;99848.34;5092052;28;20036;-66
2024/03/18 01:01:04;;;;;;;1.45;1.35;;;;;;;3.13;74.11;99847.44;5058774;28;20044;-66
2024/03/18 01:03:31;;;;;;;;;;;;;;;3.05;74.72;99843.81;5075940;28;20047;-66
2024/03/18 01:05:59;;;;;;;0.40;0.40;;;;;;;2.91;74.21;99849.22;5075504;28;19920;-65
2024/03/18 01:08:27;;;;;;;0.45;0.45;;;;;;;2.79;75.01;99831.19;5058667;28;20044;-65
2024/03/18 01:10:54;;;;;;;0.50;0.50;;;;;;;2.92;74.49;99840.88;5058641;28;20514;-65
2024/03/18 01:13:31;;;;;;;0.40;0.40;;;;;;;2.95;74.99;99838.44;5075075;28;20037;-66
2024/03/18 01:15:59;;;;;;;0.70;0.70;;;;;;;2.95;74.94;99825.84;5041967;28;20053;-66
2024/03/18 01:18:28;;;;;;;0.50;0.50;;;;;;;2.94;75.62;99835.06;5075026;28;20045;-66
2024/03/18 01:20:56;;;;;;;0.40;0.40;;;;;;;2.91;75.47;99834.09;5075510;28;20078;-66
2024/03/18 01:23:24;;;;;;;1.90;1.33;;;;;;;2.94;75.30;99829.16;5075166;28;20051;-66
2024/03/18 01:25:52;;;;;;;0.40;0.40;;;;;;;2.77;75.22;99805.09;5075020;28;20090;-65
2024/03/18 01:28:21;;;;;;;0.98;0.95;;;;;;;2.88;74.91;99823.94;5074834;28;20510;-65
2024/03/18 01:30:49;;;;;;;1.15;1.10;;;;;;;2.83;75.73;99825.47;5075045;28;20094;-66
2024/03/18 01:33:17;;;;;;;0.77;0.77;;;;;;;2.78;75.43;99830.34;5041618;28;20106;-66
2024/03/18 01:35:48;;;;;;;1.48;1.38;;;;;;;2.80;75.65;99827.88;5074943;28;20075;-66
2024/03/18 01:38:17;;;;;;;0.95;0.95;;;;;;;2.81;76.10;99822.88;5074768;28;20040;-65
2024/03/18 01:40:45;;;;;;;2.42;2.22;;;;;;;2.79;75.86;99828.66;5058146;28;20036;-66
2024/03/18 01:43:13;;;;;;;0.40;0.40;;;;;;;2.79;76.11;99827.00;5074612;28;20150;-66
2024/03/18 01:45:41;;;;;;;1.15;0.90;;;;;;;2.71;74.91;99836.84;5057879;28;20092;-66
2024/03/18 01:48:11;;;;;;;2.45;2.25;;;;;;;2.66;75.32;99833.31;5074335;28;20036;-66
2024/03/18 01:50:41;;;;;;;0.52;0.52;;;;;;;2.56;76.14;99833.81;5058014;28;20051;-66
2024/03/18 01:53:11;;;;;;;0.73;0.60;;;;;;;2.59;76.04;99836.44;5074283;28;20039;-66
2024/03/18 01:55:39;;;;;;;3.13;1.92;;;;;;;2.61;76.09;99834.84;5074225;28;20047;-66
2024/03/18 01:58:07;;;;;;;1.40;1.25;;;;;;;2.53;76.30;99816.09;5074383;28;20052;-66
2024/03/18 02:00:36;;;;;;;1.80;1.70;;;;;;;2.56;76.17;99823.75;5074741;28;20041;-66
2024/03/18 02:03:06;;;;;;;0.35;0.35;;;;;;;2.58;76.05;99829.69;5057771;28;20039;-66
2024/03/18 02:05:34;;;;;;;1.23;1.15;;;;;;;2.57;76.43;99827.97;5091121;28;20033;-66
2024/03/18 02:08:02;;;;;;;1.13;1.10;;;;;;;2.52;75.95;99829.47;5057547;28;20037;-66
2024/03/18 02:10:31;;;;;;;0.40;0.40;;;;;;;2.51;76.40;99827.78;5074225;28;20066;-66
2024/03/18 02:13:00;;;;;;;1.30;1.20;;;;;;;2.48;76.45;99822.63;5073946;28;20037;-66
2024/03/18 02:15:28;;;;;;;1.98;1.83;;;;;;;2.50;76.19;99822.66;5074148;28;20123;-66
2024/03/18 02:17:57;;;;;;;0.63;0.63;;;;;;;2.38;76.34;99800.47;5073636;28;20510;-66
2024/03/18 02:20:25;;;;;;;1.70;1.60;;;;;;;2.48;76.25;99825.16;5073658;28;20037;-66
2024/03/18 02:22:54;;;;;;;0.70;0.70;;;;;;;2.42;76.39;99822.44;5073978;28;20121;-66
2024/03/18 02:25:22;;;;;;;2.80;0.95;;;;;;;2.40;75.82;99824.03;5073711;28;20040;-66
2024/03/18 02:27:50;;;;;;;6.97;2.03;;;;;;;2.44;76.28;99818.31;5073657;28;20041;-66
2024/03/18 02:30:18;;;;;;;1.30;1.20;;;;;;;2.39;76.20;99819.81;5073840;28;20041;-66
2024/03/18 02:32:46;;;;;;;1.48;1.38;;;;;;;2.37;75.76;99818.91;5073675;28;20074;-66
2024/03/18 02:35:16;;;;;;;0.45;0.45;;;;;;;2.25;76.16;99818.50;5073726;28;20128;-66
2024/03/18 02:37:44;;;;;;;0.70;0.70;;;;;;;2.28;76.60;99816.06;5073771;28;20045;-66
2024/03/18 02:40:14;;;;;;;0.88;0.82;;;;;;;2.29;77.03;99809.38;5056552;28;20044;-66
2024/03/18 02:42:42;;;;;;;1.60;1.50;;;;;;;2.38;76.84;99804.63;5073589;28;20491;-66
2024/03/18 02:45:12;;;;;;;1.13;1.10;;;;;;;2.38;76.23;99805.50;5074077;28;20037;-66
2024/03/18 02:47:39;;;;;;;0.75;0.75;;;;;;;2.38;76.33;99805.50;5073468;28;20049;-66
2024/03/18 02:50:09;;;;;;;0.73;0.73;;;;;;;2.40;77.22;99806.41;5073392;28;20060;-66
2024/03/18 02:52:38;;;;;;;0.73;0.73;;;;;;;2.38;76.98;99800.47;5073731;28;20490;-68
2024/03/18 02:55:07;;;;;;;1.67;1.52;;;;;;;2.37;76.44;99798.75;5072200;28;20048;-65
2024/03/18 02:57:36;;;;;;;0.95;0.95;;;;;;;2.39;77.34;99794.63;5073010;28;20044;-66
2024/03/18 03:00:06;;;;;;;2.92;0.93;;;;;;;2.41;77.27;99793.00;5072963;28;20037;-66
2024/03/18 03:02:34;;;;;;;0.70;0.70;;;;;;;2.30;76.98;99785.91;5073231;28;20033;-66
2024/03/18 03:05:01;;;;;;;1.38;1.27;;;;;;;2.29;77.18;99794.25;5073176;28;20043;-66
2024/03/18 03:07:30;;;;;;;0.75;0.75;;;;;;;2.22;77.29;99800.75;5072816;28;20074;-66
2024/03/18 03:09:58;;;;;;;0.30;0.30;;;;;;;2.20;76.89;99799.00;5056304;28;20036;-66
2024/03/18 03:12:26;;;;;;;0.65;0.65;;;;;;;2.22;77.23;99795.72;5039751;28;20044;-66
2024/03/18 03:14:55;;;;;;;0.73;0.73;;;;;;;2.16;77.35;99792.16;5072701;28;20051;-66
2024/03/18 03:17:24;;;;;;;2.42;1.13;;;;;;;2.15;76.58;99796.31;5073001;28;20051;-65
2024/03/18 03:19:52;;;;;;;3.58;0.90;;;;;;;2.15;77.17;99791.28;5072567;28;20411;-66
2024/03/18 03:22:20;;;;;;;0.85;0.82;;;;;;;2.13;76.62;99797.06;5072561;28;20086;-66
2024/03/18 03:24:48;;;;;;;0.68;0.68;;;;;;;1.90;77.03;99769.44;5072870;28;20036;-65
2024/03/18 03:27:16;;;;;;;1.92;1.20;;;;;;;2.02;77.34;99790.00;5072929;28;20506;-65
2024/03/18 03:29:44;;;;;;;0.60;0.60;;;;;;;1.93;77.39;99791.34;5072840;28;20118;-66
2024/03/18 03:32:16;;;;;;;2.08;1.52;;;;;;;1.89;77.49;99797.06;5072752;28;20450;-66
2024/03/18 03:34:44;;;;;;;1.85;1.48;;;;;;;1.84;76.96;99791.03;5055866;28;20402;-65
2024/03/18 03:37:11;;;;;;;2.42;2.22;;;;;;;1.84;77.08;99794.41;5072783;28;20050;-65
2024/03/18 03:39:39;;;;;;;1.35;1.25;;;;;;;1.73;77.49;99784.72;5072728;28;20037;-65
2024/03/18 03:42:07;;;;;;;0.90;0.90;;;;;;;1.80;76.90;99787.53;5055952;28;20041;-65
2024/03/18 03:44:35;;;;;;;0.85;0.85;;;;;;;1.77;77.40;99786.59;5072667;28;20070;-65
2024/03/18 03:47:03;;;;;;;0.80;0.75;;;;;;;1.74;77.69;99788.97;5072309;28;20041;-65
2024/03/18 03:49:32;;;;;;;0.47;0.47;;;;;;;1.58;77.33;99786.72;5055809;28;20033;-66
2024/03/18 03:52:00;;;;;;;2.30;2.10;;;;;;;1.60;77.06;99787.63;5039494;28;20063;-65
2024/03/18 03:54:29;;;;;;;0.50;0.50;;;;;;;1.52;77.08;99791.50;5072312;28;20040;-66
2024/03/18 03:56:57;;;;;;;0.38;0.38;;;;;;;1.49;78.07;99793.94;5072580;28;20040;-65
2024/03/18 03:59:25;;;;;;;0.82;0.82;;;;;;;1.50;77.57;99790.59;5072493;28;20082;-65
2024/03/18 04:01:52;;;;;;;2.30;0.95;;;;;;;1.42;77.44;99792.00;5072363;28;20045;-65
2024/03/18 04:04:20;;;;;;;3.30;1.52;;;;;;;1.40;77.96;99791.06;5072435;28;20082;-66
2024/03/18 04:06:49;;;;;;;0.63;0.63;;;;;;;1.40;77.70;99791.06;5072410;28;20123;-65
2024/03/18 04:09:17;;;;;;;2.08;1.50;;;;;;;1.41;77.91;99797.81;5076406;28;20039;-66
2024/03/18 04:11:45;;;;;;;1.52;1.42;;;;;;;1.38;78.09;99796.03;5059640;28;20506;-67
2024/03/18 04:14:13;;;;;;;0.65;0.65;;;;;;;1.40;78.63;99796.09;5089398;28;20024;-66
2024/03/18 04:16:40;;;;;;;1.17;1.08;;;;;;;1.40;78.15;99803.63;5079474;28;20490;-65
2024/03/18 04:19:08;;;;;;;0.60;0.60;;;;;;;1.29;77.99;99800.72;5096550;28;20047;-66
2024/03/18 04:21:36;;;;;;;0.55;0.55;;;;;;;1.25;78.37;99793.84;5096698;28;20040;-65
2024/03/18 04:24:08;;;;;;;9.00;1.88;;;;;;;1.21;77.89;99797.94;5079556;28;20075;-65
2024/03/18 04:26:36;;;;;;;1.58;1.48;;;;;;;1.19;78.07;99791.13;5096693;28;20036;-65
2024/03/18 04:29:05;;;;;;;1.67;1.55;;;;;;;1.23;78.61;99801.34;5079486;28;20051;-65
2024/03/18 04:31:33;;;;;;;0.85;0.85;;;;;;;1.12;78.73;99800.09;5095962;28;20032;-66
2024/03/18 04:34:02;;;;;;;2.00;1.80;;;;;;;1.11;78.66;99800.88;5079898;28;20123;-65
2024/03/18 04:36:30;;;;;;;0.70;0.70;;;;;;;1.08;79.04;99805.78;5096371;28;20056;-65
2024/03/18 04:38:57;;;;;;;0.65;0.65;;;;;;;1.08;78.83;99815.84;5095853;28;20428;-65
2024/03/18 04:41:26;;;;;;;2.72;2.53;;;;;;;1.06;78.20;99807.38;5079119;28;20047;-65
2024/03/18 04:43:54;;;;;;;1.00;0.95;;;;;;;1.07;78.70;99809.13;5096146;28;20040;-66
2024/03/18 04:46:22;;;;;;;0.70;0.70;;;;;;;0.99;78.53;99815.47;5095919;28;20040;-65
2024/03/18 04:48:49;;;;;;;3.03;2.38;;;;;;;0.99;78.54;99812.09;5079116;28;20047;-65
2024/03/18 04:51:17;;;;;;;1.67;1.33;;;;;;;0.90;79.18;99814.25;5096035;28;20495;-65
2024/03/18 04:53:45;;;;;;;5.57;5.05;;;;;;;0.93;78.96;99804.34;5095840;28;20054;-66
2024/03/18 04:56:12;;;;;;;0.63;0.63;;;;;;;1.00;78.87;99807.16;5095493;28;20087;-65
2024/03/18 04:58:42;;;;;;;2.42;1.88;;;;;;;0.98;79.15;99818.81;5095892;28;20051;-66
2024/03/18 05:01:09;;;;;;;2.00;1.90;;;;;;;0.97;78.51;99812.06;5095478;28;20044;-65
2024/03/18 05:03:37;;;;;;;5.05;3.42;;;;;;;1.00;79.23;99818.84;5078670;28;20126;-66
2024/03/18 05:06:05;;;;;;;4.72;4.25;;;;;;;1.06;78.71;99807.38;5095447;28;20040;-66
2024/03/18 05:08:33;;;;;;;2.13;1.98;;;;;;;1.10;79.07;99811.75;5095305;28;20062;-66
2024/03/18 05:11:01;;;;;;;3.72;3.35;;;;;;;1.08;79.17;99810.81;5095641;28;20425;-66
2024/03/18 05:13:29;;;;;;;3.63;3.35;;;;;;;1.15;79.54;99817.78;5095563;28;20032;-66
2024/03/18 05:15:58;;;;;;;7.70;3.33;;;;;;;1.03;79.30;99807.25;5095439;28;20044;-66
2024/03/18 05:18:25;;;;;;;2.05;1.90;;;;;;;1.15;78.89;99817.78;5078116;28;20040;-66
2024/03/18 05:20:53;;;;;;;9.48;4.18;;;;;;;1.20;79.42;99823.84;5095473;28;20039;-66
2024/03/18 05:23:21;;;;;;;3.08;2.78;;;;;;;1.16;78.95;99809.47;5095410;28;20036;-66
2024/03/18 05:25:50;;;;;;;1.33;1.15;;;;;;;1.22;78.84;99814.69;5078322;28;20048;-66
2024/03/18 05:28:18;;;;;;;4.78;4.15;;;;;;;1.14;78.86;99821.09;5078358;28;20044;-66
2024/03/18 05:30:45;;;;;;;1.92;1.58;;;;;;;1.22;79.63;99819.72;5095447;28;20040;-66
2024/03/18 05:33:15;;;;;;;1.52;1.42;;;;;;;1.30;79.40;99818.38;5095243;28;20093;-66
2024/03/18 05:35:42;;;;;;;1.33;1.23;;;;;;;1.35;78.94;99818.53;5094813;28;20040;-66
2024/03/18 05:38:10;;;;;;;3.53;3.10;;;;;;;1.46;79.09;99816.44;5078190;28;20444;-66
2024/03/18 05:40:38;;;;;;;4.00;3.28;;;;;;;1.37;79.46;99801.03;5094561;28;20043;-66
2024/03/18 05:43:06;;;;;;;2.30;1.77;;;;;;;1.53;79.05;99820.91;5094775;28;20497;-66
2024/03/18 05:45:33;;;;;;;2.55;1.95;;;;;;;1.64;79.29;99819.63;5095048;28;20032;-66
2024/03/18 05:48:01;;;;;;;3.00;2.80;;;;;;;1.78;79.03;99819.31;5094530;28;20034;-66
2024/03/18 05:50:32;;;;;;;2.95;2.75;;;;;;;1.94;78.98;99823.25;5094876;28;20050;-66
2024/03/18 05:53:00;;;;;;;0.93;0.93;;;;;;;2.06;79.68;99816.16;5078100;28;20442;-66
2024/03/18 05:55:27;;;;;;;3.20;2.90;;;;;;;2.16;79.42;99813.13;5094265;28;20052;-66
2024/03/18 05:57:57;;;;;;;3.78;2.95;;;;;;;2.25;79.50;99815.97;5094949;28;20105;-66
2024/03/18 06:00:26;;;;;;;1.80;1.70;;;;;;;2.31;78.83;99808.63;5095074;28;20036;-66
2024/03/18 06:02:53;;;;;;;1.70;1.15;;;;;;;2.33;78.93;99814.56;5094595;28;20036;-66
2024/03/18 06:05:21;;;;;;;10.20;2.05;;;;;;;2.49;79.12;99810.91;5060458;28;20051;-67
2024/03/18 06:07:50;;;;;;;4.18;3.03;;;;;;;2.59;79.02;99807.88;5094449;28;20050;-66
2024/03/18 06:10:18;;;;;;;3.95;1.85;;;;;;;2.64;78.91;99802.16;5094450;28;20040;-66
2024/03/18 06:12:46;;;;;;;2.40;2.15;;;;;;;2.73;78.79;99789.03;5060789;28;20044;-67
2024/03/18 06:15:14;;;;;;;2.25;2.05;;;;;;;2.96;78.88;99802.34;5094321;28;20043;-67
2024/03/18 06:17:41;;;;;;;2.40;2.22;;;;;;;3.02;78.77;99802.53;5094145;28;20428;-67
2024/03/18 06:20:11;;;;;;;1.02;1.02;;;;;;;3.17;78.63;99803.00;5077598;28;20059;-67
2024/03/18 06:22:39;;;;;;;1.45;1.35;;;;;;;3.34;77.82;99801.84;5094273;28;20102;-67
2024/03/18 06:27:55;;;;;;;1.52;1.10;;;;;;;3.66;77.52;99801.13;5077273;28;20044;-66
2024/03/18 06:30:22;;;;;;;1.63;1.52;;;;;;;3.88;76.40;99797.53;5093214;28;20043;-66
2024/03/18 06:32:50;;;;;;;0.40;0.40;;;;;;;4.07;76.47;99795.53;5076847;28;20505;-68
2024/03/18 06:35:18;;;;;;;1.25;1.15;;;;;;;4.32;75.67;99797.03;5077068;28;20497;-68
2024/03/18 06:37:47;;;;;;;1.90;1.70;;;;;;;4.58;75.31;99800.22;5093965;28;20048;-68
2024/03/18 06:40:17;;;;;;;0.75;0.60;;;;;;;4.73;74.27;99787.94;5076811;28;20050;-68
2024/03/18 06:42:45;;;;;;;1.08;1.05;;;;;;;4.92;73.43;99782.50;5093848;28;20080;-67
2024/03/18 06:45:14;;;;;;;0.82;0.82;;;;;;;5.05;72.72;99778.59;5093937;28;20410;-68
2024/03/18 06:47:42;;;;;;;0.40;0.40;;;;;;;5.15;71.46;99776.31;5093703;28;20036;-68
2024/03/18 06:50:10;;;;;;;0.63;0.63;;;;;;;5.36;70.74;99786.88;5076609;28;20051;-68
2024/03/18 06:52:38;;;;;;;0.30;0.30;;;;;;;5.55;70.00;99772.06;5093647;28;20044;-68
2024/03/18 06:55:06;;;;;;;0.93;0.93;;;;;;;5.73;69.02;99782.59;5093178;28;20064;-68
2024/03/18 06:57:35;;;;;;;0.35;0.35;;;;;;;5.82;68.13;99780.25;5093482;28;20036;-68
2024/03/18 07:00:06;;;;;;;2.13;1.95;;;;;;;5.88;67.00;99787.97;5093377;28;20115;-68
2024/03/18 07:02:34;;;;;;;0.77;0.77;;;;;;;6.03;66.66;99783.22;5093527;28;20048;-68
2024/03/18 07:05:02;;;;;;;0.82;0.75;;;;;;;6.16;65.39;99785.16;5092760;28;20039;-67
2024/03/18 07:07:30;;;;;;;1.33;1.23;;;;;;;6.16;63.94;99790.22;5076386;28;20452;-67
2024/03/18 07:09:58;;;;;;;0.77;0.77;;;;;;;6.28;63.76;99790.44;5093095;28;20046;-67
2024/03/18 07:12:26;;;;;;;1.00;0.95;;;;;;;6.40;63.11;99783.06;5093260;28;20040;-67
2024/03/18 07:14:55;;;;;;;0.57;0.57;;;;;;;6.53;62.36;99782.44;5093291;28;20047;-67
2024/03/18 07:17:22;;;;;;;0.88;0.88;;;;;;;6.68;62.23;99785.22;5076246;28;20490;-67
2024/03/18 07:19:50;;;;;;;0.60;0.60;;;;;;;6.77;61.49;99779.44;5093009;28;20044;-67
2024/03/18 07:22:18;;;;;;;0.65;0.65;;;;;;;6.79;60.99;99771.88;5093229;28;20123;-66
2024/03/18 07:24:46;;;;;;;0.60;0.60;;;;;;;6.86;59.89;99772.00;5092857;28;20044;-67
2024/03/18 07:27:13;;;;;;;0.60;0.60;;;;;;;6.96;59.85;99773.00;5092750;28;20032;-67
2024/03/18 07:29:41;;;;;;;0.75;0.75;;;;;;;6.97;58.56;99770.47;5092649;28;20036;-66
2024/03/18 07:32:12;;;;;;;1.55;1.45;;;;;;;7.08;58.35;99768.09;5092726;28;20044;-67
2024/03/18 07:34:40;;;;;;;0.95;0.77;;;;;;;7.29;57.57;99763.31;5092587;28;20062;-68
2024/03/18 07:37:08;;;;;;;0.50;0.50;;;;;;;7.42;57.31;99771.09;5091975;28;20563;-67
2024/03/18 07:39:37;;;;;;;1.63;1.05;;;;;;;7.54;56.79;99770.41;5092894;28;20389;-66
2024/03/18 07:42:06;;;;;;;0.22;0.22;;;;;;;7.56;56.49;99773.00;5092208;28;20399;-67
2024/03/18 07:44:33;;;;;;;0.82;0.82;;;;;;;7.21;55.38;99709.03;5092879;28;20131;-67
2024/03/18 07:47:01;;;;;;;0.40;0.40;;;;;;;7.73;55.70;99766.41;5092298;28;20387;-68
2024/03/18 07:49:30;;;;;;;2.25;2.05;;;;;;;7.91;54.79;99772.56;5092654;28;20044;-68
2024/03/18 07:51:58;;;;;;;0.60;0.60;;;;;;;7.88;52.89;99764.91;5075708;28;20559;-68
2024/03/18 07:54:26;;;;;;;1.10;1.08;;;;;;;7.91;52.72;99767.50;5092576;28;20132;-68
2024/03/18 07:56:53;;;;;;;0.77;0.70;;;;;;;7.96;52.53;99763.31;5052289;28;20060;-68
2024/03/18 07:59:22;;;;;;;0.57;0.57;;;;;;;8.04;51.51;99761.69;5033316;28;20454;-68
2024/03/18 08:01:50;;;;;;;0.73;0.73;;;;;;;8.19;50.95;99762.69;5047976;28;20041;-67
2024/03/18 08:04:18;;;;;;;0.47;0.47;;;;;;;8.13;51.16;99764.31;5032018;28;20116;-67
2024/03/18 08:06:48;;;;;;;0.60;0.60;;;;;;;8.15;50.58;99748.25;5048956;28;20496;-68
2024/03/18 08:09:18;;;;;;;0.40;0.40;;;;;;;8.21;50.71;99746.59;5048907;28;20042;-68
2024/03/18 08:11:48;;;;;;;0.55;0.55;;;;;;;8.10;49.57;99753.28;5032438;28;20099;-67
2024/03/18 08:14:17;;;;;;;1.65;0.82;;;;;;;8.15;49.86;99755.88;5032353;28;20037;-67
2024/03/18 08:16:44;;;;;;;0.90;0.90;;;;;;;8.19;49.28;99727.94;5048675;28;20042;-67
2024/03/18 08:19:12;;;;;;;0.80;0.80;;;;;;;8.47;49.43;99744.34;5032324;28;20056;-68
2024/03/18 08:21:40;;;;;;;0.40;0.40;;;;;;;8.58;49.54;99737.66;5048530;28;20045;-68
2024/03/18 08:24:09;;;;;;;0.70;0.70;;;;;;;8.77;49.72;99739.50;5032265;28;20095;-68
2024/03/18 08:26:38;;;;;;;0.95;0.95;;;;;;;8.82;48.47;99732.75;5032202;28;20139;-68
2024/03/18 08:29:06;;;;;;;1.15;1.05;;;;;;;8.94;49.15;99742.16;5049066;28;20053;-68
2024/03/18 08:31:33;;;;;;;0.60;0.60;;;;;;;8.81;47.15;99731.03;5048777;28;20034;-67
2024/03/18 08:34:01;;;;;;;0.52;0.52;;;;;;;8.60;47.30;99715.63;5048605;28;20049;-68
2024/03/18 08:36:29;;;;;;;0.40;0.40;;;;;;;8.62;46.65;99731.75;5032177;28;20049;-67
2024/03/18 08:38:57;;;;;;;0.43;0.43;;;;;;;8.63;47.18;99730.91;5048745;28;20451;-65
2024/03/18 08:41:27;;;;;;;0.50;0.50;;;;;;;8.56;47.28;99724.94;5047767;28;20049;-67
2024/03/18 08:43:55;;;;;;;0.50;0.50;;;;;;;8.44;46.98;99729.06;5048353;28;20048;-67
2024/03/18 08:46:22;;;;;;;0.80;0.80;;;;;;;8.63;47.73;99713.97;5015189;28;20041;-68
2024/03/18 08:48:50;;;;;;;0.45;0.45;;;;;;;8.99;48.37;99715.03;5048404;28;20041;-67
2024/03/18 08:51:18;;;;;;;1.20;1.10;;;;;;;8.83;47.17;99708.16;5015509;28;20044;-66
2024/03/18 08:53:46;;;;;;;0.55;0.55;;;;;;;8.60;47.47;99697.81;5049828;28;20103;-67
2024/03/18 08:56:14;;;;;;;0.77;0.65;;;;;;;8.71;47.68;99719.06;5048375;28;20094;-67
2024/03/18 08:58:43;;;;;;;0.73;0.73;;;;;;;8.83;47.32;99714.06;5075283;28;20403;-67
2024/03/18 09:01:11;;;;;;;0.40;0.40;;;;;;;8.83;46.99;99713.25;5075295;28;20044;-68
2024/03/18 09:03:39;;;;;;;2.15;1.38;;;;;;;8.82;47.61;99706.44;5058671;28;20517;-67
2024/03/18 09:06:07;;;;;;;2.58;1.25;;;;;;;8.79;46.62;99704.72;5058426;28;20444;-67
2024/03/18 09:08:37;;;;;;;0.52;0.52;;;;;;;8.91;47.07;99702.25;5075373;28;20044;-68
2024/03/18 09:11:09;;;;;;;0.63;0.63;;;;;;;9.01;47.58;99711.66;5058849;28;20052;-65
2024/03/18 09:13:41;;;;;;;0.60;0.60;;;;;;;8.90;46.48;99704.81;5075596;28;20056;-66
2024/03/18 09:16:10;;;;;;;0.40;0.40;;;;;;;8.90;47.27;99705.63;5091928;28;20045;-67
2024/03/18 09:18:39;;;;;;;1.42;1.33;;;;;;;9.13;46.92;99696.47;5075212;28;20395;-67
2024/03/18 09:21:06;;;;;;;0.73;0.60;;;;;;;9.25;46.16;99704.16;5074856;28;20049;-67
2024/03/18 09:23:34;;;;;;;2.08;1.20;;;;;;;9.01;46.08;99692.97;5057893;28;20086;-65
2024/03/18 09:26:02;;;;;;;1.08;0.98;;;;;;;9.05;46.00;99693.00;5075022;28;20041;-68
2024/03/18 09:28:30;;;;;;;1.20;1.15;;;;;;;9.16;46.13;99686.28;5075055;28;20507;-67
2024/03/18 09:31:01;;;;;;;0.30;0.30;;;;;;;9.43;46.83;99688.09;5074989;28;20040;-67
2024/03/18 09:33:31;;;;;;;0.75;0.75;;;;;;;9.48;45.64;99688.13;5075027;28;20048;-65
2024/03/18 09:35:58;;;;;;;1.08;1.00;;;;;;;9.32;46.78;99660.03;5058249;28;20044;-67
2024/03/18 09:38:27;;;;;;;1.42;1.33;;;;;;;9.89;46.92;99684.84;5075088;28;20053;-67
2024/03/18 09:41:03;;;;;;;0.50;0.50;;;;;;;9.76;45.40;99682.25;5074728;28;20476;-68
2024/03/18 09:43:33;;;;;;;0.38;0.38;;;;;;;9.72;45.11;99676.28;5074827;28;20057;-67
2024/03/18 09:46:01;;;;;;;;;;;;;;;9.83;44.97;99674.66;5058328;28;20037;-67
2024/03/18 09:48:31;;;;;;;1.25;1.15;;;;;;;9.81;45.49;99670.38;5074648;28;19920;-68
2024/03/18 09:51:00;;;;;;;0.40;0.40;;;;;;;9.92;45.22;99668.69;5067944;28;20059;-68
2024/03/18 09:53:29;;;;;;;0.52;0.52;;;;;;;9.95;45.28;99664.47;5074558;28;20028;-67
2024/03/18 09:55:57;;;;;;;0.88;0.88;;;;;;;10.04;45.56;99658.50;5074032;28;20040;-68
2024/03/18 09:58:26;;;;;;;;;;;;;;;9.98;44.49;99663.63;5074740;28;20123;-68
2024/03/18 10:00:54;;;;;;;2.20;2.03;;;;;;;9.72;44.40;99660.16;5074371;28;20373;-65
2024/03/18 10:03:21;;;;;;;0.43;0.43;;;;;;;9.41;44.95;99662.63;5057578;28;20045;-68
2024/03/18 10:05:52;;;;;;;0.90;0.80;;;;;;;9.80;46.11;99655.94;5057750;28;20032;-67
2024/03/18 10:08:20;;;;;;;0.77;0.77;;;;;;;10.08;45.21;99647.47;5073833;28;20098;-68
2024/03/18 10:10:50;;;;;;;0.52;0.52;;;;;;;9.96;44.19;99650.00;5074069;28;20179;-67
2024/03/18 10:13:23;;;;;;;0.52;0.40;;;;;;;9.61;44.58;99626.16;5073986;28;20048;-67
2024/03/18 10:15:52;;;;;;;0.93;0.93;;;;;;;9.64;44.80;99651.66;5074071;28;20114;-67
2024/03/18 10:18:20;;;;;;;0.45;0.45;;;;;;;9.90;44.83;99655.09;5073809;28;20499;-68
2024/03/18 10:20:48;;;;;;;0.60;0.60;;;;;;;9.96;44.54;99639.81;5073693;28;20033;-66
2024/03/18 10:23:17;;;;;;;0.82;0.80;;;;;;;10.09;44.70;99644.06;5073684;28;20038;-67
2024/03/18 10:25:45;;;;;;;1.25;1.15;;;;;;;10.15;44.53;99641.53;5073626;28;20041;-68
2024/03/18 10:28:14;;;;;;;0.65;0.65;;;;;;;10.00;44.76;99636.44;5073279;28;20495;-67
2024/03/18 10:30:43;;;;;;;0.50;0.50;;;;;;;9.78;44.62;99627.03;5073681;28;20048;-68
2024/03/18 10:33:11;;;;;;;0.52;0.52;;;;;;;9.53;44.37;99630.38;5073163;28;20044;-67
2024/03/18 10:35:40;;;;;;;0.93;0.90;;;;;;;9.67;44.58;99626.19;5073537;28;20082;-66
2024/03/18 10:38:09;;;;;;;0.68;0.68;;;;;;;9.70;44.41;99621.06;5073651;28;20044;-66
2024/03/18 10:40:40;;;;;;;1.60;1.50;;;;;;;9.77;45.03;99625.31;5073689;28;20461;-66
2024/03/18 10:43:09;;;;;;;1.15;0.93;;;;;;;10.12;45.46;99631.38;5073161;28;20052;-67
2024/03/18 10:45:39;;;;;;;0.40;0.40;;;;;;;10.24;44.54;99621.16;5073293;28;20048;-67
2024/03/18 10:48:05;;;;;;;;;;;;;;;10.50;44.44;99629.63;5057195;28;20385;-67
2024/03/18 10:50:35;;;;;;;0.47;0.47;;;;;;;10.67;43.85;99627.91;5056803;28;19920;-67
2024/03/18 10:53:04;;;;;;;0.70;0.70;;;;;;;10.60;43.25;99631.34;5073502;28;20048;-66
2024/03/18 10:55:32;;;;;;;0.55;0.55;;;;;;;10.74;43.08;99624.50;5039648;28;20052;-66
2024/03/18 10:58:04;;;;;;;0.60;0.60;;;;;;;10.31;42.28;99617.75;5073207;28;20075;-66
2024/03/18 11:00:32;;;;;;;1.45;1.20;;;;;;;10.31;43.12;99612.66;5073214;28;20458;-66
2024/03/18 11:03:03;;;;;;;0.50;0.50;;;;;;;10.60;43.18;99613.47;5072828;28;20029;-67
2024/03/18 11:05:34;;;;;;;0.70;0.70;;;;;;;10.92;42.89;99618.47;5072820;28;20441;-66
2024/03/18 11:08:02;;;;;;;0.70;0.70;;;;;;;10.68;42.51;99614.28;5072955;28;20032;-65
2024/03/18 11:10:31;;;;;;;0.80;0.80;;;;;;;10.43;43.44;99615.19;5073031;28;20037;-66
2024/03/18 11:13:20;;;;;;;1.38;1.27;;;;;;;10.67;43.30;99617.72;5072848;28;20441;-65
2024/03/18 11:15:55;;;;;;;0.40;0.40;;;;;;;10.54;42.58;99610.91;5072714;28;20044;-66
2024/03/18 11:18:28;;;;;;;1.20;0.95;;;;;;;10.68;43.05;99603.22;5072840;28;20049;-66
2024/03/18 11:21:01;;;;;;;0.82;0.82;;;;;;;10.73;42.99;99591.28;5055986;28;20041;-67
2024/03/18 11:23:30;;;;;;;41.78;2.13;;;;;;;11.11;42.69;99593.72;5072691;28;20131;-65
2024/03/18 11:26:04;;;;;;;1.42;1.33;;;;;;;11.14;42.86;99598.81;5055855;28;20072;-67
2024/03/18 11:28:38;;;;;;;1.17;1.02;;;;;;;11.07;42.48;99592.03;5072925;28;20131;-67
2024/03/18 11:31:07;;;;;;;1.17;1.08;;;;;;;10.48;42.16;99544.59;5039154;28;20170;-66
2024/03/18 11:33:36;;;;;;;0.97;0.97;;;;;;;10.90;42.69;99599.75;5056054;28;20041;-66
2024/03/18 11:36:05;;;;;;;1.08;0.93;;;;;;;10.92;42.21;99577.63;5072764;28;20036;-66
2024/03/18 11:38:33;;;;;;;0.40;0.40;;;;;;;10.81;42.27;99575.97;5072577;28;20037;-65
2024/03/18 11:41:01;;;;;;;1.38;1.13;;;;;;;10.69;42.03;99580.25;5072958;28;20044;-65
2024/03/18 11:43:28;;;;;;;1.15;1.05;;;;;;;10.91;42.54;99581.03;5072159;28;20044;-66
2024/03/18 11:45:59;;;;;;;0.85;0.85;;;;;;;10.75;41.57;99575.13;5072608;28;20045;-64
2024/03/18 11:48:27;;;;;;;1.00;0.93;;;;;;;10.60;42.46;99575.19;5072601;28;20040;-65
2024/03/18 11:50:54;;;;;;;0.52;0.52;;;;;;;10.61;42.51;99570.91;5072474;28;20078;-66